sensor_id;sensor_type;location;lat;lon;timestamp;pressure;altitude;pressure_sealevel;temperature;humidity
48527;BME280;34317;51.660;5.824;2024-03-06T00:01:36;101710.22;;;9.44;58.62
48527;BME280;34317;51.660;5.824;2024-03-06T00:04:03;101714.75;;;9.39;58.44
48527;BME280;34317;51.660;5.824;2024-03-06T00:06:31;101714.00;;;9.34;58.51
48527;BME280;34317;51.660;5.824;2024-03-06T00:08:59;101712.38;;;9.28;58.61
48527;BME280;34317;51.660;5.824;2024-03-06T00:11:27;101713.38;;;9.23;58.37
48527;BME280;34317;51.660;5.824;2024-03-06T00:13:54;101720.59;;;9.18;58.63
48527;BME280;34317;51.660;5.824;2024-03-06T00:16:22;101725.16;;;9.11;58.62
48527;BME280;34317;51.660;5.824;2024-03-06T00:18:49;101726.16;;;9.05;58.58
48527;BME280;34317;51.660;5.824;2024-03-06T00:21:18;101726.22;;;9.02;58.38
48527;BME280;34317;51.660;5.824;2024-03-06T00:23:45;101723.69;;;8.99;58.45
48527;BME280;34317;51.660;5.824;2024-03-06T00:26:15;101721.09;;;8.96;58.78
48527;BME280;34317;51.660;5.824;2024-03-06T00:28:43;101726.47;;;8.93;58.20
48527;BME280;34317;51.660;5.824;2024-03-06T00:31:11;101724.78;;;8.89;58.54
48527;BME280;34317;51.660;5.824;2024-03-06T00:33:40;101724.88;;;8.86;58.90
48527;BME280;34317;51.660;5.824;2024-03-06T00:36:07;101730.22;;;8.83;58.57
48527;BME280;34317;51.660;5.824;2024-03-06T00:38:34;101728.56;;;8.79;58.86
48527;BME280;34317;51.660;5.824;2024-03-06T00:41:02;101743.59;;;8.76;58.64
48527;BME280;34317;51.660;5.824;2024-03-06T00:43:29;101732.25;;;8.71;58.62
48527;BME280;34317;51.660;5.824;2024-03-06T00:45:57;101746.44;;;8.67;58.67
48527;BME280;34317;51.660;5.824;2024-03-06T00:48:24;101742.97;;;8.65;58.69
48527;BME280;34317;51.660;5.824;2024-03-06T00:50:51;101743.91;;;8.63;58.86
48527;BME280;34317;51.660;5.824;2024-03-06T00:53:19;101746.59;;;8.61;58.96
48527;BME280;34317;51.660;5.824;2024-03-06T00:55:46;101748.38;;;8.59;58.85
48527;BME280;34317;51.660;5.824;2024-03-06T00:58:14;101744.06;;;8.55;58.70
48527;BME280;34317;51.660;5.824;2024-03-06T01:00:41;101744.13;;;8.53;58.93
48527;BME280;34317;51.660;5.824;2024-03-06T01:03:08;101744.13;;;8.52;58.66
48527;BME280;34317;51.660;5.824;2024-03-06T01:05:36;101753.03;;;8.48;58.92
48527;BME280;34317;51.660;5.824;2024-03-06T01:08:03;101753.03;;;8.48;58.85
48527;BME280;34317;51.660;5.824;2024-03-06T01:10:30;101755.72;;;8.45;58.53
48527;BME280;34317;51.660;5.824;2024-03-06T01:12:58;101754.06;;;8.39;58.63
48527;BME280;34317;51.660;5.824;2024-03-06T01:15:25;101762.91;;;8.36;58.65
48527;BME280;34317;51.660;5.824;2024-03-06T01:17:52;101766.50;;;8.32;58.98
48527;BME280;34317;51.660;5.824;2024-03-06T01:20:20;101769.25;;;8.28;58.79
48527;BME280;34317;51.660;5.824;2024-03-06T01:22:47;101763.16;;;8.24;58.54
48527;BME280;34317;51.660;5.824;2024-03-06T01:25:15;101767.66;;;8.19;58.62
48527;BME280;34317;51.660;5.824;2024-03-06T01:27:42;101772.19;;;8.14;59.09
48527;BME280;34317;51.660;5.824;2024-03-06T01:30:10;101776.63;;;8.12;58.51
48527;BME280;34317;51.660;5.824;2024-03-06T01:32:37;101775.75;;;8.10;58.77
48527;BME280;34317;51.660;5.824;2024-03-06T01:35:09;101766.13;;;8.07;58.73
48527;BME280;34317;51.660;5.824;2024-03-06T01:37:36;101770.63;;;8.02;58.79
48527;BME280;34317;51.660;5.824;2024-03-06T01:40:04;101784.81;;;7.96;58.84
48527;BME280;34317;51.660;5.824;2024-03-06T01:42:32;101776.13;;;7.91;58.93
48527;BME280;34317;51.660;5.824;2024-03-06T01:44:59;101781.44;;;7.88;58.98
48527;BME280;34317;51.660;5.824;2024-03-06T01:47:27;101788.53;;;7.86;59.07
48527;BME280;34317;51.660;5.824;2024-03-06T01:49:55;101788.53;;;7.86;59.23
48527;BME280;34317;51.660;5.824;2024-03-06T01:52:23;101792.03;;;7.85;59.08
48527;BME280;34317;51.660;5.824;2024-03-06T01:54:51;101792.13;;;7.82;58.95
48527;BME280;34317;51.660;5.824;2024-03-06T01:57:19;101793.84;;;7.83;59.14
48527;BME280;34317;51.660;5.824;2024-03-06T01:59:48;101796.50;;;7.82;59.27
48527;BME280;34317;51.660;5.824;2024-03-06T02:02:16;101790.38;;;7.81;58.99
48527;BME280;34317;51.660;5.824;2024-03-06T02:04:44;101795.66;;;7.81;59.04
48527;BME280;34317;51.660;5.824;2024-03-06T02:07:12;101797.44;;;7.79;59.28
48527;BME280;34317;51.660;5.824;2024-03-06T02:09:40;101800.09;;;7.77;59.14
48527;BME280;34317;51.660;5.824;2024-03-06T02:12:07;101799.25;;;7.77;59.36
48527;BME280;34317;51.660;5.824;2024-03-06T02:14:38;101812.44;;;7.77;59.60
48527;BME280;34317;51.660;5.824;2024-03-06T02:17:05;101791.31;;;7.78;59.40
48527;BME280;34317;51.660;5.824;2024-03-06T02:19:41;101800.91;;;7.81;59.54
48527;BME280;34317;51.660;5.824;2024-03-06T02:22:09;101802.69;;;7.82;59.26
48527;BME280;34317;51.660;5.824;2024-03-06T02:24:38;101801.72;;;7.85;59.76
48527;BME280;34317;51.660;5.824;2024-03-06T02:27:05;101807.88;;;7.85;59.65
48527;BME280;34317;51.660;5.824;2024-03-06T02:29:33;101799.06;;;7.86;59.56
48527;BME280;34317;51.660;5.824;2024-03-06T02:32:00;101805.19;;;7.88;59.78
48527;BME280;34317;51.660;5.824;2024-03-06T02:34:29;101814.84;;;7.89;59.59
48527;BME280;34317;51.660;5.824;2024-03-06T02:36:57;101813.97;;;7.89;59.75
48527;BME280;34317;51.660;5.824;2024-03-06T02:39:24;101812.22;;;7.89;59.82
48527;BME280;34317;51.660;5.824;2024-03-06T02:41:52;101816.56;;;7.90;59.82
48527;BME280;34317;51.660;5.824;2024-03-06T02:44:20;101813.06;;;7.91;59.82
48527;BME280;34317;51.660;5.824;2024-03-06T02:46:48;101823.53;;;7.94;59.64
48527;BME280;34317;51.660;5.824;2024-03-06T02:49:17;101812.97;;;7.94;59.74
48527;BME280;34317;51.660;5.824;2024-03-06T02:51:45;101812.97;;;7.94;59.85
48527;BME280;34317;51.660;5.824;2024-03-06T02:54:13;101811.25;;;7.93;59.84
48527;BME280;34317;51.660;5.824;2024-03-06T02:56:41;101807.72;;;7.94;59.73
48527;BME280;34317;51.660;5.824;2024-03-06T02:59:08;101811.25;;;7.93;59.55
48527;BME280;34317;51.660;5.824;2024-03-06T03:01:36;101813.06;;;7.91;59.80
48527;BME280;34317;51.660;5.824;2024-03-06T03:04:03;101807.81;;;7.90;59.35
48527;BME280;34317;51.660;5.824;2024-03-06T03:06:31;101805.19;;;7.88;60.02
48527;BME280;34317;51.660;5.824;2024-03-06T03:08:58;101809.63;;;7.86;59.63
48527;BME280;34317;51.660;5.824;2024-03-06T03:11:25;101807.88;;;7.85;59.75
48527;BME280;34317;51.660;5.824;2024-03-06T03:13:52;101811.47;;;7.81;59.68
48527;BME280;34317;51.660;5.824;2024-03-06T03:16:20;101808.03;;;7.76;59.13
48527;BME280;34317;51.660;5.824;2024-03-06T03:18:49;101815.19;;;7.71;59.55
48527;BME280;34317;51.660;5.824;2024-03-06T03:21:16;101817.00;;;7.66;59.29
48527;BME280;34317;51.660;5.824;2024-03-06T03:23:43;101821.50;;;7.59;59.19
48527;BME280;34317;51.660;5.824;2024-03-06T03:26:10;101818.97;;;7.54;59.31
48527;BME280;34317;51.660;5.824;2024-03-06T03:28:38;101831.34;;;7.49;59.23
48527;BME280;34317;51.660;5.824;2024-03-06T03:31:08;101826.19;;;7.43;59.13
48527;BME280;34317;51.660;5.824;2024-03-06T03:33:39;101826.28;;;7.37;59.43
48527;BME280;34317;51.660;5.824;2024-03-06T03:36:07;101831.59;;;7.34;59.49
48527;BME280;34317;51.660;5.824;2024-03-06T03:38:37;101826.44;;;7.28;59.40
48527;BME280;34317;51.660;5.824;2024-03-06T03:41:11;101828.22;;;7.26;59.36
48527;BME280;34317;51.660;5.824;2024-03-06T03:43:45;101834.38;;;7.23;59.48
48527;BME280;34317;51.660;5.824;2024-03-06T03:46:12;101835.31;;;7.20;59.71
48527;BME280;34317;51.660;5.824;2024-03-06T03:48:40;101829.19;;;7.18;59.38
48527;BME280;34317;51.660;5.824;2024-03-06T03:51:08;101836.25;;;7.16;59.58
48527;BME280;34317;51.660;5.824;2024-03-06T03:53:35;101838.03;;;7.14;59.77
48527;BME280;34317;51.660;5.824;2024-03-06T03:56:03;101844.19;;;7.13;59.45
48527;BME280;34317;51.660;5.824;2024-03-06T03:58:30;101837.19;;;7.12;59.54
48527;BME280;34317;51.660;5.824;2024-03-06T04:00:59;101838.09;;;7.10;59.76
48527;BME280;34317;51.660;5.824;2024-03-06T04:03:26;101837.22;;;7.09;59.67
48527;BME280;34317;51.660;5.824;2024-03-06T04:05:53;101833.75;;;7.07;59.52
48527;BME280;34317;51.660;5.824;2024-03-06T04:08:20;101831.13;;;7.06;59.66
48527;BME280;34317;51.660;5.824;2024-03-06T04:10:48;101837.34;;;7.03;59.51
48527;BME280;34317;51.660;5.824;2024-03-06T04:13:15;101837.38;;;7.00;59.52
48527;BME280;34317;51.660;5.824;2024-03-06T04:15:43;101837.44;;;6.97;59.53
48527;BME280;34317;51.660;5.824;2024-03-06T04:18:12;101840.94;;;6.96;59.18
48527;BME280;34317;51.660;5.824;2024-03-06T04:20:39;101842.72;;;6.94;59.27
48527;BME280;34317;51.660;5.824;2024-03-06T04:23:08;101842.75;;;6.91;59.28
48527;BME280;34317;51.660;5.824;2024-03-06T04:25:35;101842.81;;;6.88;59.66
48527;BME280;34317;51.660;5.824;2024-03-06T04:28:03;101845.47;;;6.86;59.50
48527;BME280;34317;51.660;5.824;2024-03-06T04:30:30;101848.13;;;6.81;59.62
48527;BME280;34317;51.660;5.824;2024-03-06T04:32:57;101856.13;;;6.75;59.43
48527;BME280;34317;51.660;5.824;2024-03-06T04:35:24;101855.31;;;6.70;59.56
48527;BME280;34317;51.660;5.824;2024-03-06T04:37:52;101866.75;;;6.69;59.84
48527;BME280;34317;51.660;5.824;2024-03-06T04:40:19;101867.63;;;6.68;59.93
48527;BME280;34317;51.660;5.824;2024-03-06T04:42:49;101867.63;;;6.68;59.76
48527;BME280;34317;51.660;5.824;2024-03-06T04:45:17;101862.34;;;6.68;59.83
48527;BME280;34317;51.660;5.824;2024-03-06T04:47:44;101857.09;;;6.68;59.58
48527;BME280;34317;51.660;5.824;2024-03-06T04:50:12;101862.34;;;6.68;59.89
48527;BME280;34317;51.660;5.824;2024-03-06T04:52:42;101874.63;;;6.69;59.76
48527;BME280;34317;51.660;5.824;2024-03-06T04:55:09;101875.50;;;6.68;59.69
48527;BME280;34317;51.660;5.824;2024-03-06T04:57:43;101885.16;;;6.69;59.74
48527;BME280;34317;51.660;5.824;2024-03-06T05:00:11;101891.31;;;6.68;59.52
48527;BME280;34317;51.660;5.824;2024-03-06T05:02:39;101888.75;;;6.62;59.75
48527;BME280;34317;51.660;5.824;2024-03-06T05:05:24;101894.09;;;6.56;59.85
48527;BME280;34317;51.660;5.824;2024-03-06T05:08:13;101902.88;;;6.55;59.50
48527;BME280;34317;51.660;5.824;2024-03-06T05:11:02;101908.22;;;6.49;59.70
48527;BME280;34317;51.660;5.824;2024-03-06T05:13:47;101914.34;;;6.48;59.99
48527;BME280;34317;51.660;5.824;2024-03-06T05:16:32;101910.00;;;6.47;59.65
48527;BME280;34317;51.660;5.824;2024-03-06T05:19:17;101920.53;;;6.47;59.58
48527;BME280;34317;51.660;5.824;2024-03-06T05:22:01;101927.50;;;6.48;59.58
48527;BME280;34317;51.660;5.824;2024-03-06T05:24:46;101929.28;;;6.49;60.03
48527;BME280;34317;51.660;5.824;2024-03-06T05:27:31;101936.31;;;6.47;59.89
48527;BME280;34317;51.660;5.824;2024-03-06T05:30:16;101931.06;;;6.43;59.93
48527;BME280;34317;51.660;5.824;2024-03-06T05:33:01;101929.34;;;6.42;59.56
48527;BME280;34317;51.660;5.824;2024-03-06T05:35:46;101932.84;;;6.41;59.82
48527;BME280;34317;51.660;5.824;2024-03-06T05:38:31;101935.47;;;6.41;59.56
48527;BME280;34317;51.660;5.824;2024-03-06T05:41:16;101935.47;;;6.41;59.74
48527;BME280;34317;51.660;5.824;2024-03-06T05:44:02;101939.88;;;6.42;59.66
48527;BME280;34317;51.660;5.824;2024-03-06T05:46:48;101949.50;;;6.42;59.98
48527;BME280;34317;51.660;5.824;2024-03-06T05:49:34;101947.78;;;6.39;59.84
48527;BME280;34317;51.660;5.824;2024-03-06T05:52:19;101954.81;;;6.39;59.31
48527;BME280;34317;51.660;5.824;2024-03-06T05:55:05;101954.81;;;6.36;59.35
48527;BME280;34317;51.660;5.824;2024-03-06T05:57:50;101954.03;;;6.29;59.28
48527;BME280;34317;51.660;5.824;2024-03-06T06:00:35;101968.06;;;6.25;59.62
48527;BME280;34317;51.660;5.824;2024-03-06T06:03:03;101969.84;;;6.23;59.42
48527;BME280;34317;51.660;5.824;2024-03-06T06:05:30;101976.88;;;6.21;59.50
48527;BME280;34317;51.660;5.824;2024-03-06T06:07:57;101978.66;;;6.22;59.58
48527;BME280;34317;51.660;5.824;2024-03-06T06:10:25;101986.53;;;6.23;59.69
48527;BME280;34317;51.660;5.824;2024-03-06T06:12:53;101985.63;;;6.26;59.90
48527;BME280;34317;51.660;5.824;2024-03-06T06:15:20;101983.84;;;6.28;59.64
48527;BME280;34317;51.660;5.824;2024-03-06T06:17:47;101992.59;;;6.30;59.71
48527;BME280;34317;51.660;5.824;2024-03-06T06:20:15;101995.22;;;6.30;59.90
48527;BME280;34317;51.660;5.824;2024-03-06T06:22:44;101991.72;;;6.28;59.71
48527;BME280;34317;51.660;5.824;2024-03-06T06:25:13;102007.50;;;6.31;59.91
48527;BME280;34317;51.660;5.824;2024-03-06T06:27:40;102004.88;;;6.31;59.71
48527;BME280;34317;51.660;5.824;2024-03-06T06:30:08;102012.72;;;6.33;60.17
48527;BME280;34317;51.660;5.824;2024-03-06T06:32:42;102012.72;;;6.34;60.05
48527;BME280;34317;51.660;5.824;2024-03-06T06:35:11;102018.84;;;6.36;60.27
48527;BME280;34317;51.660;5.824;2024-03-06T06:37:41;102013.56;;;6.39;59.84
48527;BME280;34317;51.660;5.824;2024-03-06T06:40:09;102008.28;;;6.42;59.93
48527;BME280;34317;51.660;5.824;2024-03-06T06:42:37;102017.91;;;6.43;59.77
48527;BME280;34317;51.660;5.824;2024-03-06T06:45:05;102027.56;;;6.45;59.89
48527;BME280;34317;51.660;5.824;2024-03-06T06:47:34;102035.44;;;6.46;59.55
48527;BME280;34317;51.660;5.824;2024-03-06T06:50:02;102039.81;;;6.46;59.83
48527;BME280;34317;51.660;5.824;2024-03-06T06:52:33;102041.56;;;6.47;59.73
48527;BME280;34317;51.660;5.824;2024-03-06T06:55:02;102045.94;;;6.49;60.15
48527;BME280;34317;51.660;5.824;2024-03-06T06:57:30;102048.56;;;6.51;60.18
48527;BME280;34317;51.660;5.824;2024-03-06T06:59:58;102045.00;;;6.55;60.06
48527;BME280;34317;51.660;5.824;2024-03-06T07:02:25;102052.88;;;6.56;60.18
48527;BME280;34317;51.660;5.824;2024-03-06T07:04:53;102049.34;;;6.60;60.14
48527;BME280;34317;51.660;5.824;2024-03-06T07:07:20;102062.47;;;6.65;60.10
48527;BME280;34317;51.660;5.824;2024-03-06T07:09:51;102051.91;;;6.68;60.36
48527;BME280;34317;51.660;5.824;2024-03-06T07:12:18;102055.38;;;6.70;60.04
48527;BME280;34317;51.660;5.824;2024-03-06T07:14:46;102069.38;;;6.75;60.48
48527;BME280;34317;51.660;5.824;2024-03-06T07:17:13;102071.09;;;6.79;60.14
48527;BME280;34317;51.660;5.824;2024-03-06T07:19:42;102072.78;;;6.87;60.06
48527;BME280;34317;51.660;5.824;2024-03-06T07:22:09;102079.78;;;6.91;60.16
48527;BME280;34317;51.660;5.824;2024-03-06T07:24:37;102075.34;;;6.96;60.21
48527;BME280;34317;51.660;5.824;2024-03-06T07:27:05;102076.16;;;7.01;60.56
48527;BME280;34317;51.660;5.824;2024-03-06T07:29:33;102077.00;;;7.05;60.03
48527;BME280;34317;51.660;5.824;2024-03-06T07:32:01;102079.59;;;7.09;60.56
48527;BME280;34317;51.660;5.824;2024-03-06T07:34:28;102085.69;;;7.14;60.31
48527;BME280;34317;51.660;5.824;2024-03-06T07:36:56;102086.53;;;7.16;60.25
48527;BME280;34317;51.660;5.824;2024-03-06T07:39:23;102093.53;;;7.17;60.47
48527;BME280;34317;51.660;5.824;2024-03-06T07:41:51;102099.69;;;7.18;60.23
48527;BME280;34317;51.660;5.824;2024-03-06T07:44:18;102112.84;;;7.19;60.57
48527;BME280;34317;51.660;5.824;2024-03-06T07:46:47;102109.31;;;7.24;60.48
48527;BME280;34317;51.660;5.824;2024-03-06T07:49:14;102114.53;;;7.27;60.35
48527;BME280;34317;51.660;5.824;2024-03-06T07:51:41;102110.97;;;7.31;60.38
48527;BME280;34317;51.660;5.824;2024-03-06T07:54:11;102107.44;;;7.32;60.34
48527;BME280;34317;51.660;5.824;2024-03-06T07:56:38;102111.78;;;7.34;60.39
48527;BME280;34317;51.660;5.824;2024-03-06T07:59:08;102119.69;;;7.36;60.47
48527;BME280;34317;51.660;5.824;2024-03-06T08:01:35;102119.66;;;7.39;60.63
48527;BME280;34317;51.660;5.824;2024-03-06T08:04:03;102114.34;;;7.42;60.55
48527;BME280;34317;51.660;5.824;2024-03-06T08:06:30;102123.06;;;7.50;60.92
48527;BME280;34317;51.660;5.824;2024-03-06T08:08:59;102116.84;;;7.56;60.82
48527;BME280;34317;51.660;5.824;2024-03-06T08:11:29;102122.94;;;7.59;60.60
48527;BME280;34317;51.660;5.824;2024-03-06T08:14:07;102117.63;;;7.63;60.48
48527;BME280;34317;51.660;5.824;2024-03-06T08:16:34;102126.34;;;7.68;60.58
48527;BME280;34317;51.660;5.824;2024-03-06T08:19:03;102124.53;;;7.73;60.85
48527;BME280;34317;51.660;5.824;2024-03-06T08:21:31;102135.03;;;7.76;60.88
48527;BME280;34317;51.660;5.824;2024-03-06T08:23:59;102134.97;;;7.82;60.75
48527;BME280;34317;51.660;5.824;2024-03-06T08:26:26;102137.50;;;7.90;60.87
48527;BME280;34317;51.660;5.824;2024-03-06T08:28:55;102143.56;;;7.96;60.70
48527;BME280;34317;51.660;5.824;2024-03-06T08:31:22;102136.44;;;8.05;61.07
48527;BME280;34317;51.660;5.824;2024-03-06T08:33:50;102138.09;;;8.12;60.84
48527;BME280;34317;51.660;5.824;2024-03-06T08:36:19;102135.38;;;8.16;60.69
48527;BME280;34317;51.660;5.824;2024-03-06T08:38:46;102145.00;;;8.22;60.96
48527;BME280;34317;51.660;5.824;2024-03-06T08:41:14;102146.69;;;8.26;60.73
48527;BME280;34317;51.660;5.824;2024-03-06T08:43:41;102156.25;;;8.33;61.00
48527;BME280;34317;51.660;5.824;2024-03-06T08:46:08;102154.44;;;8.38;60.80
48527;BME280;34317;51.660;5.824;2024-03-06T08:48:36;102153.50;;;8.46;60.64
48527;BME280;34317;51.660;5.824;2024-03-06T08:51:03;102156.91;;;8.51;60.94
48527;BME280;34317;51.660;5.824;2024-03-06T08:53:40;102160.34;;;8.56;61.15
48527;BME280;34317;51.660;5.824;2024-03-06T08:56:11;102169.00;;;8.66;61.17
48527;BME280;34317;51.660;5.824;2024-03-06T08:58:38;102170.63;;;8.74;60.87
48527;BME280;34317;51.660;5.824;2024-03-06T09:01:06;102169.66;;;8.82;60.72
48527;BME280;34317;51.660;5.824;2024-03-06T09:03:33;102175.72;;;8.87;60.66
48527;BME280;34317;51.660;5.824;2024-03-06T09:06:01;102172.13;;;8.91;60.68
48527;BME280;34317;51.660;5.824;2024-03-06T09:08:30;102175.56;;;8.96;60.82
48527;BME280;34317;51.660;5.824;2024-03-06T09:10:57;102175.44;;;9.02;60.82
48527;BME280;34317;51.660;5.824;2024-03-06T09:13:26;102183.19;;;9.13;60.94
48527;BME280;34317;51.660;5.824;2024-03-06T09:15:54;102189.25;;;9.20;60.98
48527;BME280;34317;51.660;5.824;2024-03-06T09:18:22;102189.16;;;9.26;60.93
48527;BME280;34317;51.660;5.824;2024-03-06T09:20:49;102196.13;;;9.30;60.55
48527;BME280;34317;51.660;5.824;2024-03-06T09:23:17;102190.78;;;9.33;60.58
48527;BME280;34317;51.660;5.824;2024-03-06T09:25:44;102196.00;;;9.36;60.71
48527;BME280;34317;51.660;5.824;2024-03-06T09:28:12;102187.06;;;9.43;60.73
48527;BME280;34317;51.660;5.824;2024-03-06T09:30:40;102194.91;;;9.49;60.74
48527;BME280;34317;51.660;5.824;2024-03-06T09:33:08;102199.16;;;9.57;61.01
48527;BME280;34317;51.660;5.824;2024-03-06T09:35:36;102202.47;;;9.68;60.98
48527;BME280;34317;51.660;5.824;2024-03-06T09:38:03;102202.22;;;9.80;61.13
48527;BME280;34317;51.660;5.824;2024-03-06T09:40:31;102210.88;;;9.88;61.06
48527;BME280;34317;51.660;5.824;2024-03-06T09:42:59;102212.50;;;9.96;60.80
48527;BME280;34317;51.660;5.824;2024-03-06T09:45:26;102210.63;;;10.01;60.50
48527;BME280;34317;51.660;5.824;2024-03-06T09:47:54;102219.41;;;10.03;60.64
48527;BME280;34317;51.660;5.824;2024-03-06T09:50:23;102220.22;;;10.06;60.83
48527;BME280;34317;51.660;5.824;2024-03-06T09:52:53;102218.28;;;10.14;60.70
48527;BME280;34317;51.660;5.824;2024-03-06T09:55:22;102225.16;;;10.25;60.95
48527;BME280;34317;51.660;5.824;2024-03-06T09:57:50;102228.53;;;10.33;60.76
48527;BME280;34317;51.660;5.824;2024-03-06T10:00:20;102227.47;;;10.42;60.94
48527;BME280;34317;51.660;5.824;2024-03-06T10:02:56;102232.56;;;10.51;60.73
48527;BME280;34317;51.660;5.824;2024-03-06T10:05:24;102225.34;;;10.56;60.64
48527;BME280;34317;51.660;5.824;2024-03-06T10:08:16;102234.91;;;10.63;60.37
48527;BME280;34317;51.660;5.824;2024-03-06T10:10:44;102232.25;;;10.63;60.25
48527;BME280;34317;51.660;5.824;2024-03-06T10:13:16;102234.06;;;10.61;60.51
48527;BME280;34317;51.660;5.824;2024-03-06T10:16:03;102232.25;;;10.63;60.50
48527;BME280;34317;51.660;5.824;2024-03-06T10:18:32;102240.97;;;10.68;60.55
48527;BME280;34317;51.660;5.824;2024-03-06T10:21:00;102239.06;;;10.74;60.40
48527;BME280;34317;51.660;5.824;2024-03-06T10:23:28;102237.19;;;10.79;60.66
48527;BME280;34317;51.660;5.824;2024-03-06T10:25:58;102233.44;;;10.89;60.83
48527;BME280;34317;51.660;5.824;2024-03-06T10:28:26;102236.75;;;10.97;60.79
48527;BME280;34317;51.660;5.824;2024-03-06T10:31:03;102241.00;;;11.04;60.85
48527;BME280;34317;51.660;5.824;2024-03-06T10:33:31;102234.56;;;11.15;60.92
48527;BME280;34317;51.660;5.824;2024-03-06T10:36:00;102246.59;;;11.28;61.33
48527;BME280;34317;51.660;5.824;2024-03-06T10:38:35;102248.13;;;11.38;61.14
48527;BME280;34317;51.660;5.824;2024-03-06T10:41:04;102240.75;;;11.49;61.13
48527;BME280;34317;51.660;5.824;2024-03-06T10:43:36;102249.31;;;11.61;61.09
48527;BME280;34317;51.660;5.824;2024-03-06T10:46:06;102243.66;;;11.73;60.88
48527;BME280;34317;51.660;5.824;2024-03-06T10:48:39;102241.56;;;11.84;61.07
48527;BME280;34317;51.660;5.824;2024-03-06T10:51:09;102246.69;;;11.92;60.90
48527;BME280;34317;51.660;5.824;2024-03-06T10:53:38;102249.97;;;12.02;60.87
48527;BME280;34317;51.660;5.824;2024-03-06T10:56:08;102250.63;;;12.10;60.78
48527;BME280;34317;51.660;5.824;2024-03-06T10:58:38;102248.56;;;12.20;61.00
48527;BME280;34317;51.660;5.824;2024-03-06T11:01:06;102242.13;;;12.29;60.73
48527;BME280;34317;51.660;5.824;2024-03-06T11:03:35;102242.81;;;12.34;60.57
48527;BME280;34317;51.660;5.824;2024-03-06T11:06:05;102249.81;;;12.38;60.63
48527;BME280;34317;51.660;5.824;2024-03-06T11:08:34;102249.72;;;12.41;60.44
48527;BME280;34317;51.660;5.824;2024-03-06T11:11:21;102247.72;;;12.49;60.66
48527;BME280;34317;51.660;5.824;2024-03-06T11:13:54;102254.47;;;12.59;60.65
48527;BME280;34317;51.660;5.824;2024-03-06T11:16:29;102249.78;;;12.68;60.51
48527;BME280;34317;51.660;5.824;2024-03-06T11:19:07;102244.16;;;12.77;60.50
48527;BME280;34317;51.660;5.824;2024-03-06T11:21:45;102245.75;;;12.82;60.44
48527;BME280;34317;51.660;5.824;2024-03-06T11:24:17;102243.69;;;12.92;60.59
48527;BME280;34317;51.660;5.824;2024-03-06T11:29:16;102251.13;;;13.09;60.26
48527;BME280;34317;51.660;5.824;2024-03-06T11:32:05;102248.22;;;13.17;60.36
48527;BME280;34317;51.660;5.824;2024-03-06T11:34:35;102249.63;;;13.27;60.25
48527;BME280;34317;51.660;5.824;2024-03-06T11:37:05;102254.69;;;13.36;60.28
48527;BME280;34317;51.660;5.824;2024-03-06T11:39:37;102254.38;;;13.46;60.05
48527;BME280;34317;51.660;5.824;2024-03-06T11:42:06;102250.56;;;13.53;60.10
48527;BME280;34317;51.660;5.824;2024-03-06T11:44:53;102253.81;;;13.61;59.91
48527;BME280;34317;51.660;5.824;2024-03-06T11:47:22;102258.72;;;13.73;60.04
48527;BME280;34317;51.660;5.824;2024-03-06T11:49:50;102254.69;;;13.87;59.86
48527;BME280;34317;51.660;5.824;2024-03-06T11:52:18;102260.50;;;13.98;59.77
48527;BME280;34317;51.660;5.824;2024-03-06T11:54:45;102260.09;;;14.09;59.72
48527;BME280;34317;51.660;5.824;2024-03-06T11:57:12;102254.47;;;14.16;59.58
48527;BME280;34317;51.660;5.824;2024-03-06T11:59:44;102255.06;;;14.25;59.29
48527;BME280;34317;51.660;5.824;2024-03-06T12:02:12;102251.25;;;14.32;59.32
48527;BME280;34317;51.660;5.824;2024-03-06T12:04:41;102249.16;;;14.40;59.02
48527;BME280;34317;51.660;5.824;2024-03-06T12:07:08;102252.38;;;14.48;58.91
48527;BME280;34317;51.660;5.824;2024-03-06T12:09:38;102255.63;;;14.56;58.70
48527;BME280;34317;51.660;5.824;2024-03-06T12:12:10;102250.09;;;14.63;58.27
48527;BME280;34317;51.660;5.824;2024-03-06T12:14:39;102248.13;;;14.68;58.15
48527;BME280;34317;51.660;5.824;2024-03-06T12:17:12;102249.63;;;14.75;57.98
48527;BME280;34317;51.660;5.824;2024-03-06T12:19:43;102252.03;;;14.81;58.34
48527;BME280;34317;51.660;5.824;2024-03-06T12:22:14;102245.53;;;14.88;57.75
48527;BME280;34317;51.660;5.824;2024-03-06T12:24:43;102247.13;;;14.92;57.90
48527;BME280;34317;51.660;5.824;2024-03-06T12:27:10;102254.75;;;15.02;57.85
48527;BME280;34317;51.660;5.824;2024-03-06T12:29:40;102253.56;;;15.09;57.67
48527;BME280;34317;51.660;5.824;2024-03-06T12:32:19;102260.50;;;15.13;57.40
48527;BME280;34317;51.660;5.824;2024-03-06T12:34:58;102253.31;;;15.15;57.13
48527;BME280;34317;51.660;5.824;2024-03-06T12:37:33;102254.22;;;15.14;56.82
48527;BME280;34317;51.660;5.824;2024-03-06T12:40:03;102251.56;;;15.14;56.58
48527;BME280;34317;51.660;5.824;2024-03-06T12:42:32;102255.19;;;15.13;56.61
48527;BME280;34317;51.660;5.824;2024-03-06T12:45:00;102260.50;;;15.13;56.25
48527;BME280;34317;51.660;5.824;2024-03-06T12:47:27;102256.16;;;15.10;56.16
48527;BME280;34317;51.660;5.824;2024-03-06T12:49:55;102246.47;;;15.08;55.94
48527;BME280;34317;51.660;5.824;2024-03-06T12:52:22;102250.06;;;15.07;55.89
48527;BME280;34317;51.660;5.824;2024-03-06T12:54:49;102251.81;;;15.08;55.76
48527;BME280;34317;51.660;5.824;2024-03-06T12:57:18;102258.75;;;15.12;55.96
48527;BME280;34317;51.660;5.824;2024-03-06T12:59:45;102252.34;;;15.16;55.88
48527;BME280;34317;51.660;5.824;2024-03-06T13:02:14;102251.31;;;15.20;55.74
48527;BME280;34317;51.660;5.824;2024-03-06T13:04:41;102240.38;;;15.26;55.65
48527;BME280;34317;51.660;5.824;2024-03-06T13:07:08;102240.13;;;15.32;55.56
48527;BME280;34317;51.660;5.824;2024-03-06T13:09:36;102243.31;;;15.41;55.50
48527;BME280;34317;51.660;5.824;2024-03-06T13:12:04;102242.34;;;15.43;55.10
48527;BME280;34317;51.660;5.824;2024-03-06T13:14:33;102239.59;;;15.45;55.02